Bosporus — V2QY — position and weather

sailwx.info

Track history (hours):
 
Tides and Currents Weather Stations Pressure Air Temp Water Temp Dewpoint Dewpoint Depression Visibility Wind Speed Wind Dir Waves Ship Positions

Bosporus

Last reported at 2014-Jul-23 01:26 UTC. Time now 2014-Jul-23 01:40 UTC.
Position N 43°09' E 004°16'.

Length 100 m; draft 4.1 m.

Type: Cargo ship. MMSI: 304010802.

Date/timePositionNaut miles runAvg speedWind from/ knotsBaromVisibWave heightAir tempDewpointWater temp
2014-Jul-23 01:26N 43°09' E 004°16'1111.0
2014-Jul-23 00:27N 43°06' E 004°01'1111.0
2014-Jul-22 23:29N 43°03' E 003°48'1010.6
2014-Jul-22 22:30N 43°00' E 003°34'4010.1
2014-Jul-22 18:32N 42°21' E 003°22'1010.4
2014-Jul-22 17:33N 42°11' E 003°20'2410.6
2014-Jul-22 15:18N 41°48' E 003°13'810.7
2014-Jul-22 14:32N 41°43' E 003°05'1111.7
2014-Jul-22 13:33N 41°35' E 002°53'1311.4
2014-Jul-22 12:26N 41°27' E 002°40'1111.4
2014-Jul-22 11:28N 41°19' E 002°30'3010.1
2014-Jul-22 08:33N 40°60' E 001°60'1110.3
2014-Jul-22 07:29N 40°53' E 001°49'1010.1
2014-Jul-22 06:31N 40°46' E 001°39'1010.1
2014-Jul-22 05:33N 40°40' E 001°30'10 9.9
2014-Jul-22 04:33N 40°33' E 001°20'11 9.8
2014-Jul-22 03:24N 40°26' E 001°08'2110.3
2014-Jul-22 01:24N 40°13' E 000°47'910.4
2014-Jul-22 00:33N 40°08' E 000°38'1010.5
2014-Jul-21 23:33N 40°01' E 000°28'38 2.5
2014-Jul-21 08:33N 39°39' W 000°13'78 9.4
2014-Jul-21 00:15N 40°37' E 000°55'17 9.5
2014-Jul-20 22:29N 40°47' E 001°13'8 8.8
2014-Jul-20 21:33N 40°51' E 001°22'9 9.3
2014-Jul-20 20:33N 40°56' E 001°33'9 9.1
2014-Jul-20 19:33N 41°01' E 001°43'11 8.8
2014-Jul-20 18:16N 41°07' E 001°56'6 8.9
2014-Jul-20 17:33N 41°10' E 002°03'9 8.7
2014-Jul-20 16:33N 41°15' E 002°13'9 9.0
2014-Jul-20 15:33N 41°20' E 002°23'9 9.2
2014-Jul-20 14:33N 41°26' E 002°33'9 8.9
2014-Jul-20 13:32N 41°31' E 002°42'9 8.9
2014-Jul-20 12:33N 41°36' E 002°52'28 9.4
2014-Jul-20 09:33N 41°57' E 003°17'2010.1
2014-Jul-20 07:33N 42°17' E 003°21'10 9.6
2014-Jul-20 06:33N 42°27' E 003°24'1410.5
2014-Jul-20 05:12N 42°40' E 003°28'910.2
2014-Jul-20 04:21N 42°49' E 003°30'8 9.1
2014-Jul-20 03:27N 42°54' E 003°39'9 9.7
2014-Jul-20 02:33N 42°58' E 003°50'9 8.9
2014-Jul-20 01:33N 43°03' E 003°59'9 8.7
2014-Jul-20 00:33N 43°08' E 004°09'9 9.1
2014-Jul-19 23:33N 43°10' E 004°22'9 8.7
2014-Jul-19 22:33N 43°13' E 004°33'9 8.5
2014-Jul-19 21:33N 43°15' E 004°44'8 8.1
2014-Jul-19 20:34N 43°18' E 004°54'6 5.7
2014-Jul-19 19:34N 43°24' E 004°53'2 1.9
2014-Jul-19 18:33N 43°26' E 004°54'0 0.0
2014-Jul-19 17:33N 43°26' E 004°54'0 0.0
2014-Jul-19 16:33N 43°26' E 004°54'0 0.0
2014-Jul-19 15:33N 43°26' E 004°54'0 0.0
2014-Jul-19 14:33N 43°26' E 004°54'0 0.0
2014-Jul-19 13:30N 43°26' E 004°54'0 0.0
2014-Jul-19 12:33N 43°26' E 004°54'0 0.0
2014-Jul-19 11:33N 43°26' E 004°54'0 0.0
2014-Jul-19 10:33N 43°26' E 004°54'0 0.0
2014-Jul-19 09:33N 43°26' E 004°54'0 0.0
2014-Jul-19 08:33N 43°26' E 004°54'0 0.2
2014-Jul-19 07:34N 43°25' E 004°54'8 7.6
2014-Jul-19 06:34N 43°19' E 004°59'1010.0
2014-Jul-19 05:34N 43°09' E 004°59'1111.0
2014-Jul-19 04:34N 43°01' E 004°49'1210.5
2014-Jul-19 03:23N 42°53' E 004°37'910.5
2014-Jul-19 02:33N 42°46' E 004°28'1010.2
2014-Jul-19 01:34N 42°39' E 004°19'10 9.9
2014-Jul-19 00:34N 42°32' E 004°10'10 9.8
2014-Jul-18 23:34N 42°25' E 004°01'1010.1
2014-Jul-18 22:34N 42°17' E 003°51'1010.1
2014-Jul-18 21:33N 42°10' E 003°41'1010.5
2014-Jul-18 20:33N 42°03' E 003°32'1211.2
2014-Jul-18 19:30N 41°54' E 003°21'2211.2
2014-Jul-18 17:33N 41°40' E 002°58'1111.6
2014-Jul-18 16:34N 41°33' E 002°46'1111.4
2014-Jul-18 15:33N 41°26' E 002°34'1111.0
2014-Jul-18 14:33N 41°19' E 002°22'1110.7
2014-Jul-18 13:34N 41°14' E 002°10'1211.2
2014-Jul-18 12:32N 41°11' E 001°55'1111.2
2014-Jul-18 11:33N 41°08' E 001°41'1111.0
2014-Jul-18 10:32N 41°05' E 001°27'1110.7
2014-Jul-18 09:33N 41°05' E 001°13'2 0.1
2014-Jul-17 20:05N 41°06' E 001°14'2 3.4
2014-Jul-17 19:24N 41°04' E 001°12'7 8.1
2014-Jul-17 18:34N 40°57' E 001°09'10 9.9
2014-Jul-17 17:33N 40°48' E 001°04'1110.8
2014-Jul-17 16:34N 40°39' E 000°57'2211.1
2014-Jul-17 14:33N 40°22' E 000°38'18 0.4
2014-Jul-15 16:33N 40°04' E 000°32'1010.1
2014-Jul-15 15:33N 40°10' E 000°42'20 9.8
2014-Jul-15 13:33N 40°23' E 001°02'1010.2
2014-Jul-15 12:31N 40°29' E 001°13'1010.3
2014-Jul-15 11:33N 40°36' E 001°23'1010.4
2014-Jul-15 10:33N 40°42' E 001°34'1010.4
2014-Jul-15 09:33N 40°49' E 001°44'1210.6
2014-Jul-15 08:28N 40°57' E 001°55'1010.8
2014-Jul-15 07:31N 41°04' E 002°05'1110.6
2014-Jul-15 06:28N 41°11' E 002°17'1010.4
2014-Jul-15 05:33N 41°17' E 002°26'1010.2
2014-Jul-15 04:33N 41°24' E 002°36'1010.0
2014-Jul-15 03:33N 41°31' E 002°46'1110.8
2014-Jul-15 02:32N 41°38' E 002°58'1010.0
2014-Jul-15 01:33N 41°44' E 003°08'1010.2
2014-Jul-15 00:32N 41°52' E 003°17'1010.2
2014-Jul-14 23:33N 41°59' E 003°26'1010.0
2014-Jul-14 22:32N 42°07' E 003°35'1010.3
2014-Jul-14 21:33N 42°15' E 003°43'1010.3
2014-Jul-14 20:33N 42°23' E 003°52'1010.2
2014-Jul-14 19:33N 42°31' E 004°01'9 9.4
2014-Jul-14 18:33N 42°38' E 004°09'9 9.2
2014-Jul-14 17:32N 42°45' E 004°17'9 9.0
2014-Jul-14 16:32N 42°52' E 004°25'20 9.4
2014-Jul-14 14:27N 43°07' E 004°42'8 9.3
2014-Jul-14 13:33N 43°14' E 004°50'9 8.9
2014-Jul-14 12:33N 43°21' E 004°56'5 4.7
2014-Jul-14 11:32N 43°26' E 004°53'0 0.0
2014-Jul-14 10:32N 43°26' E 004°53'0 0.0
2014-Jul-14 09:32N 43°26' E 004°53'0 0.0
2014-Jul-14 08:32N 43°26' E 004°53'0 0.0
2014-Jul-14 07:32N 43°26' E 004°53'0 0.0
2014-Jul-14 06:29N 43°26' E 004°53'0 0.0
2014-Jul-14 05:32N 43°26' E 004°53'0 0.0
2014-Jul-14 04:32N 43°26' E 004°53'0 0.0
2014-Jul-14 03:32N 43°26' E 004°53'0 0.0
2014-Jul-14 02:29N 43°26' E 004°53'0 0.0
2014-Jul-14 01:29N 43°26' E 004°53'0 0.0
2014-Jul-14 00:32N 43°26' E 004°53'0 0.0
2014-Jul-13 23:32N 43°26' E 004°53'0 0.0
2014-Jul-13 22:29N 43°26' E 004°53'0 0.0
2014-Jul-13 21:32N 43°26' E 004°53'0 0.0
2014-Jul-13 20:32N 43°26' E 004°53'0 0.0
2014-Jul-13 19:32N 43°26' E 004°53'6 6.0
2014-Jul-13 18:33N 43°21' E 004°59'1010.3
2014-Jul-13 17:33N 43°11' E 005°02'1111.2
2014-Jul-13 16:33N 43°03' E 004°51'1211.5
2014-Jul-13 15:33N 42°55' E 004°40'9710.8
2014-Jul-13 06:33N 41°44' E 003°09'1311.6
2014-Jul-13 05:27N 41°35' E 002°58'1512.1
2014-Jul-13 04:15N 41°25' E 002°44'  
Track history (hours):
 
Tides and Currents Weather Stations Pressure Air Temp Water Temp Dewpoint Dewpoint Depression Visibility Wind Speed Wind Dir Waves Ship Positions

Bosporus

Last reported at 2014-Jul-23 01:26 UTC. Time now 2014-Jul-23 01:40 UTC.
Position N 43°09' E 004°16'.

Length 100 m; draft 4.1 m.

Type: Cargo ship. MMSI: 304010802.

Date/timePositionNaut miles runAvg speedWind from/ knotsBaromVisibWave heightAir tempDewpointWater temp
2014-Jul-23 01:26N 43°09' E 004°16'1111.0
2014-Jul-23 00:27N 43°06' E 004°01'1111.0
2014-Jul-22 23:29N 43°03' E 003°48'1010.6
2014-Jul-22 22:30N 43°00' E 003°34'4010.1
2014-Jul-22 18:32N 42°21' E 003°22'1010.4
2014-Jul-22 17:33N 42°11' E 003°20'2410.6
2014-Jul-22 15:18N 41°48' E 003°13'810.7
2014-Jul-22 14:32N 41°43' E 003°05'1111.7
2014-Jul-22 13:33N 41°35' E 002°53'1311.4
2014-Jul-22 12:26N 41°27' E 002°40'1111.4
2014-Jul-22 11:28N 41°19' E 002°30'3010.1
2014-Jul-22 08:33N 40°60' E 001°60'1110.3
2014-Jul-22 07:29N 40°53' E 001°49'1010.1
2014-Jul-22 06:31N 40°46' E 001°39'1010.1
2014-Jul-22 05:33N 40°40' E 001°30'10 9.9
2014-Jul-22 04:33N 40°33' E 001°20'11 9.8
2014-Jul-22 03:24N 40°26' E 001°08'2110.3
2014-Jul-22 01:24N 40°13' E 000°47'910.4
2014-Jul-22 00:33N 40°08' E 000°38'1010.5
2014-Jul-21 23:33N 40°01' E 000°28'38 2.5
2014-Jul-21 08:33N 39°39' W 000°13'78 9.4
2014-Jul-21 00:15N 40°37' E 000°55'17 9.5
2014-Jul-20 22:29N 40°47' E 001°13'8 8.8
2014-Jul-20 21:33N 40°51' E 001°22'9 9.3
2014-Jul-20 20:33N 40°56' E 001°33'9 9.1
2014-Jul-20 19:33N 41°01' E 001°43'11 8.8
2014-Jul-20 18:16N 41°07' E 001°56'6 8.9
2014-Jul-20 17:33N 41°10' E 002°03'9 8.7
2014-Jul-20 16:33N 41°15' E 002°13'9 9.0
2014-Jul-20 15:33N 41°20' E 002°23'9 9.2
2014-Jul-20 14:33N 41°26' E 002°33'9 8.9
2014-Jul-20 13:32N 41°31' E 002°42'9 8.9
2014-Jul-20 12:33N 41°36' E 002°52'28 9.4
2014-Jul-20 09:33N 41°57' E 003°17'2010.1
2014-Jul-20 07:33N 42°17' E 003°21'10 9.6
2014-Jul-20 06:33N 42°27' E 003°24'1410.5
2014-Jul-20 05:12N 42°40' E 003°28'910.2
2014-Jul-20 04:21N 42°49' E 003°30'8 9.1
2014-Jul-20 03:27N 42°54' E 003°39'9 9.7
2014-Jul-20 02:33N 42°58' E 003°50'9 8.9
2014-Jul-20 01:33N 43°03' E 003°59'9 8.7
2014-Jul-20 00:33N 43°08' E 004°09'9 9.1
2014-Jul-19 23:33N 43°10' E 004°22'9 8.7
2014-Jul-19 22:33N 43°13' E 004°33'9 8.5
2014-Jul-19 21:33N 43°15' E 004°44'8 8.1
2014-Jul-19 20:34N 43°18' E 004°54'6 5.7
2014-Jul-19 19:34N 43°24' E 004°53'2 1.9
2014-Jul-19 18:33N 43°26' E 004°54'0 0.0
2014-Jul-19 17:33N 43°26' E 004°54'0 0.0
2014-Jul-19 16:33N 43°26' E 004°54'0 0.0
2014-Jul-19 15:33N 43°26' E 004°54'0 0.0
2014-Jul-19 14:33N 43°26' E 004°54'0 0.0
2014-Jul-19 13:30N 43°26' E 004°54'0 0.0
2014-Jul-19 12:33N 43°26' E 004°54'0 0.0
2014-Jul-19 11:33N 43°26' E 004°54'0 0.0
2014-Jul-19 10:33N 43°26' E 004°54'0 0.0
2014-Jul-19 09:33N 43°26' E 004°54'0 0.0
2014-Jul-19 08:33N 43°26' E 004°54'0 0.2
2014-Jul-19 07:34N 43°25' E 004°54'8 7.6
2014-Jul-19 06:34N 43°19' E 004°59'1010.0
2014-Jul-19 05:34N 43°09' E 004°59'1111.0
2014-Jul-19 04:34N 43°01' E 004°49'1210.5
2014-Jul-19 03:23N 42°53' E 004°37'910.5
2014-Jul-19 02:33N 42°46' E 004°28'1010.2
2014-Jul-19 01:34N 42°39' E 004°19'10 9.9
2014-Jul-19 00:34N 42°32' E 004°10'10 9.8
2014-Jul-18 23:34N 42°25' E 004°01'1010.1
2014-Jul-18 22:34N 42°17' E 003°51'1010.1
2014-Jul-18 21:33N 42°10' E 003°41'1010.5
2014-Jul-18 20:33N 42°03' E 003°32'1211.2
2014-Jul-18 19:30N 41°54' E 003°21'2211.2
2014-Jul-18 17:33N 41°40' E 002°58'1111.6
2014-Jul-18 16:34N 41°33' E 002°46'1111.4
2014-Jul-18 15:33N 41°26' E 002°34'1111.0
2014-Jul-18 14:33N 41°19' E 002°22'1110.7
2014-Jul-18 13:34N 41°14' E 002°10'1211.2
2014-Jul-18 12:32N 41°11' E 001°55'1111.2
2014-Jul-18 11:33N 41°08' E 001°41'1111.0
2014-Jul-18 10:32N 41°05' E 001°27'1110.7
2014-Jul-18 09:33N 41°05' E 001°13'2 0.1
2014-Jul-17 20:05N 41°06' E 001°14'2 3.4
2014-Jul-17 19:24N 41°04' E 001°12'7 8.1
2014-Jul-17 18:34N 40°57' E 001°09'10 9.9
2014-Jul-17 17:33N 40°48' E 001°04'1110.8
2014-Jul-17 16:34N 40°39' E 000°57'2211.1
2014-Jul-17 14:33N 40°22' E 000°38'18 0.4
2014-Jul-15 16:33N 40°04' E 000°32'1010.1
2014-Jul-15 15:33N 40°10' E 000°42'20 9.8
2014-Jul-15 13:33N 40°23' E 001°02'1010.2
2014-Jul-15 12:31N 40°29' E 001°13'1010.3
2014-Jul-15 11:33N 40°36' E 001°23'1010.4
2014-Jul-15 10:33N 40°42' E 001°34'1010.4
2014-Jul-15 09:33N 40°49' E 001°44'1210.6
2014-Jul-15 08:28N 40°57' E 001°55'1010.8
2014-Jul-15 07:31N 41°04' E 002°05'1110.6
2014-Jul-15 06:28N 41°11' E 002°17'1010.4
2014-Jul-15 05:33N 41°17' E 002°26'1010.2
2014-Jul-15 04:33N 41°24' E 002°36'1010.0
2014-Jul-15 03:33N 41°31' E 002°46'1110.8
2014-Jul-15 02:32N 41°38' E 002°58'1010.0
2014-Jul-15 01:33N 41°44' E 003°08'1010.2
2014-Jul-15 00:32N 41°52' E 003°17'1010.2
2014-Jul-14 23:33N 41°59' E 003°26'1010.0
2014-Jul-14 22:32N 42°07' E 003°35'1010.3
2014-Jul-14 21:33N 42°15' E 003°43'1010.3
2014-Jul-14 20:33N 42°23' E 003°52'1010.2
2014-Jul-14 19:33N 42°31' E 004°01'9 9.4
2014-Jul-14 18:33N 42°38' E 004°09'9 9.2
2014-Jul-14 17:32N 42°45' E 004°17'9 9.0
2014-Jul-14 16:32N 42°52' E 004°25'20 9.4
2014-Jul-14 14:27N 43°07' E 004°42'8 9.3
2014-Jul-14 13:33N 43°14' E 004°50'9 8.9
2014-Jul-14 12:33N 43°21' E 004°56'5 4.7
2014-Jul-14 11:32N 43°26' E 004°53'0 0.0
2014-Jul-14 10:32N 43°26' E 004°53'0 0.0
2014-Jul-14 09:32N 43°26' E 004°53'0 0.0
2014-Jul-14 08:32N 43°26' E 004°53'0 0.0
2014-Jul-14 07:32N 43°26' E 004°53'0 0.0
2014-Jul-14 06:29N 43°26' E 004°53'0 0.0
2014-Jul-14 05:32N 43°26' E 004°53'0 0.0
2014-Jul-14 04:32N 43°26' E 004°53'0 0.0
2014-Jul-14 03:32N 43°26' E 004°53'0 0.0
2014-Jul-14 02:29N 43°26' E 004°53'0 0.0
2014-Jul-14 01:29N 43°26' E 004°53'0 0.0
2014-Jul-14 00:32N 43°26' E 004°53'0 0.0
2014-Jul-13 23:32N 43°26' E 004°53'0 0.0
2014-Jul-13 22:29N 43°26' E 004°53'0 0.0
2014-Jul-13 21:32N 43°26' E 004°53'0 0.0
2014-Jul-13 20:32N 43°26' E 004°53'0 0.0
2014-Jul-13 19:32N 43°26' E 004°53'6 6.0
2014-Jul-13 18:33N 43°21' E 004°59'1010.3
2014-Jul-13 17:33N 43°11' E 005°02'1111.2
2014-Jul-13 16:33N 43°03' E 004°51'1211.5
2014-Jul-13 15:33N 42°55' E 004°40'9710.8
2014-Jul-13 06:33N 41°44' E 003°09'1311.6
2014-Jul-13 05:27N 41°35' E 002°58'1512.1
2014-Jul-13 04:15N 41°25' E 002°44'  

Dump ship's entire track history